Time;durP1;ratioP1;P1;durP2;ratioP2;P2;SDS_P1;SDS_P2;PMS_P1;PMS_P2;Temp;Humidity;BMP_temperature;BMP_pressure;BME280_temperature;BME280_humidity;BME280_pressure;Samples;Min_cycle;Max_cycle;Signal;HPM_P1;HPM_P2
2023/01/11 00:01:01;;;;;;;20.30;7.35;;;;;;;9.86;100.00;100488.16;5036770;28;20112;-39
2023/01/11 00:03:26;;;;;;;22.88;7.20;;;;;;;9.86;100.00;100485.44;5042800;28;20067;-40
2023/01/11 00:05:54;;;;;;;18.40;7.47;;;;;;;9.87;100.00;100489.81;5032960;28;20601;-40
2023/01/11 00:08:20;;;;;;;20.38;7.10;;;;;;;9.87;100.00;100483.59;5031913;28;20022;-37
2023/01/11 00:10:46;;;;;;;16.65;6.82;;;;;;;9.86;100.00;100474.69;5033543;28;20030;-39
2023/01/11 00:13:12;;;;;;;19.65;8.13;;;;;;;9.91;100.00;100489.44;5041337;28;20025;-40
2023/01/11 00:15:39;;;;;;;22.17;7.38;;;;;;;9.91;100.00;100489.44;5044845;28;20021;-40
2023/01/11 00:18:04;;;;;;;13.95;7.47;;;;;;;9.88;100.00;100487.97;5034010;28;20029;-42
2023/01/11 00:20:30;;;;;;;15.90;7.32;;;;;;;9.89;100.00;100492.31;5036536;28;20086;-42
2023/01/11 00:22:55;;;;;;;25.20;8.32;;;;;;;9.88;100.00;100485.28;5036814;28;20492;-42
2023/01/11 00:25:21;;;;;;;12.02;6.88;;;;;;;9.89;100.00;100498.50;5043504;28;20049;-42
2023/01/11 00:27:48;;;;;;;16.98;7.30;;;;;;;9.89;100.00;100495.00;5030665;28;20125;-42
2023/01/11 00:30:13;;;;;;;14.50;7.67;;;;;;;9.89;100.00;100486.94;5037679;28;20397;-41
2023/01/11 00:32:39;;;;;;;15.88;8.80;;;;;;;9.87;100.00;100488.97;5032475;28;20025;-40
2023/01/11 00:35:05;;;;;;;15.23;8.32;;;;;;;9.85;100.00;100485.66;5030914;28;20045;-41
2023/01/11 00:37:30;;;;;;;19.00;9.25;;;;;;;9.86;100.00;100487.31;5039058;28;20065;-41
2023/01/11 00:39:55;;;;;;;16.95;9.25;;;;;;;9.86;100.00;100498.06;5045590;28;20033;-41
2023/01/11 00:48:03;;;;;;;16.48;9.35;;;;;;;9.86;100.00;100481.94;5032626;28;20041;-41
2023/01/11 00:50:36;;;;;;;17.38;9.32;;;;;;;9.87;100.00;100488.97;5044947;28;20226;-42
2023/01/11 00:53:02;;;;;;;20.52;9.77;;;;;;;9.87;100.00;100483.59;5039593;28;20040;-43
2023/01/11 00:55:27;;;;;;;12.43;8.18;;;;;;;9.89;100.00;100498.50;5039746;28;20016;-44
2023/01/11 00:57:53;;;;;;;17.23;9.80;;;;;;;9.93;100.00;100508.94;5032506;28;20044;-45
2023/01/11 01:00:20;;;;;;;14.55;7.93;;;;;;;9.95;100.00;100501.47;5039069;28;20064;-45
2023/01/11 01:02:46;;;;;;;18.10;8.43;;;;;;;9.93;100.00;100506.25;5039021;28;20036;-44
2023/01/11 01:05:11;;;;;;;15.82;7.75;;;;;;;9.95;100.00;100510.38;5043832;28;20030;-43
2023/01/11 01:07:36;;;;;;;16.13;8.38;;;;;;;9.99;100.00;100508.16;5034163;28;20125;-44
2023/01/11 01:10:03;;;;;;;18.55;8.65;;;;;;;10.03;100.00;100506.75;5034438;28;20033;-43
2023/01/11 01:15:12;;;;;;;11.93;7.05;;;;;;;10.12;100.00;100502.97;5030156;28;20425;-43
2023/01/11 01:17:38;;;;;;;17.75;7.43;;;;;;;10.24;100.00;100514.91;5035149;28;20056;-45
2023/01/11 01:20:03;;;;;;;13.18;6.50;;;;;;;10.24;100.00;100496.09;5030390;28;20065;-43
2023/01/11 01:22:29;;;;;;;17.67;6.30;;;;;;;10.22;100.00;100502.69;5032155;28;20697;-41
2023/01/11 01:24:54;;;;;;;10.70;5.95;;;;;;;10.25;100.00;100518.44;5043251;28;20112;-43
2023/01/11 01:27:19;;;;;;;14.60;6.07;;;;;;;10.22;100.00;100508.88;5043682;28;20024;-41
2023/01/11 01:29:45;;;;;;;13.57;6.00;;;;;;;10.24;100.00;100501.47;5033649;28;20029;-41
2023/01/11 01:32:10;;;;;;;8.30;5.68;;;;;;;10.30;100.00;100507.97;5031590;28;20111;-42
2023/01/11 01:34:36;;;;;;;10.43;5.80;;;;;;;10.31;100.00;100510.47;5034105;28;20051;-41
2023/01/11 01:37:06;;;;;;;11.82;6.03;;;;;;;10.35;100.00;100521.72;5029072;28;20037;-41
2023/01/11 01:39:31;;;;;;;11.18;4.40;;;;;;;10.38;100.00;100517.81;5035941;28;20367;-40
2023/01/11 01:41:57;;;;;;;11.02;3.60;;;;;;;10.43;100.00;100507.31;5040744;28;20058;-40
2023/01/11 01:45:01;;;;;;;8.27;3.00;;;;;;;10.50;100.00;100527.03;5036904;28;20013;-41
2023/01/11 01:47:29;;;;;;;6.53;2.25;;;;;;;10.54;100.00;100522.97;5029814;28;20036;-40
2023/01/11 01:49:56;;;;;;;6.78;2.17;;;;;;;10.64;100.00;100523.50;5029960;28;20437;-41
2023/01/11 01:52:27;;;;;;;9.03;2.20;;;;;;;10.65;100.00;100535.91;5034765;28;20084;-40
2023/01/11 01:54:55;;;;;;;9.07;2.05;;;;;;;10.66;100.00;100534.88;5034758;28;20614;-39
2023/01/11 01:57:22;;;;;;;8.82;2.00;;;;;;;10.63;100.00;100545.19;5029676;28;20036;-40
2023/01/11 01:59:50;;;;;;;12.55;2.42;;;;;;;10.60;100.00;100532.13;5031985;28;20395;-41
2023/01/11 02:02:17;;;;;;;7.75;2.28;;;;;;;10.57;100.00;100544.09;5031340;28;20057;-40
2023/01/11 02:04:43;;;;;;;11.63;2.60;;;;;;;10.55;100.00;100546.13;5038477;28;20108;-40
2023/01/11 02:07:17;;;;;;;18.98;2.60;;;;;;;10.50;100.00;100532.41;5047210;28;20033;-40
2023/01/11 02:09:58;;;;;;;11.73;2.40;;;;;;;10.47;100.00;100527.41;5045219;28;20032;-40
2023/01/11 02:12:24;;;;;;;19.63;2.88;;;;;;;10.44;100.00;100527.81;5038440;28;20087;-40
2023/01/11 02:14:51;;;;;;;26.05;3.20;;;;;;;10.39;100.00;100528.34;5035694;28;20048;-40
2023/01/11 02:17:17;;;;;;;25.77;3.33;;;;;;;10.40;100.00;100537.25;5030305;28;20036;-40
2023/01/11 02:19:54;;;;;;;21.67;3.05;;;;;;;10.39;100.00;100531.03;5040344;28;20392;-40
2023/01/11 02:22:38;;;;;;;24.35;3.90;;;;;;;10.38;100.00;100534.78;5033575;28;20164;-41
2023/01/11 02:25:38;;;;;;;26.33;3.00;;;;;;;10.36;100.00;100535.97;5043707;28;20037;-40
2023/01/11 02:28:09;;;;;;;14.43;3.05;;;;;;;10.35;100.00;100534.28;5017103;28;20047;-40
2023/01/11 02:30:46;;;;;;;21.30;3.38;;;;;;;10.33;100.00;100537.19;5030207;28;20052;-39
2023/01/11 02:33:22;;;;;;;17.95;3.33;;;;;;;10.30;100.00;100549.16;5031063;28;20025;-40
2023/01/11 02:36:09;;;;;;;19.80;3.85;;;;;;;10.31;100.00;100540.06;5027202;28;20029;-40
2023/01/11 02:38:42;;;;;;;13.75;3.13;;;;;;;10.28;100.00;100548.50;5029259;28;20031;-40
2023/01/11 02:41:21;;;;;;;18.27;3.45;;;;;;;10.27;100.00;100527.16;5027387;28;20033;-40
2023/01/11 02:46:41;;;;;;;20.67;3.13;;;;;;;10.22;100.00;100535.78;5036178;28;20476;-40
2023/01/11 02:49:12;;;;;;;22.95;2.85;;;;;;;10.19;100.00;100536.16;5027672;28;20046;-39
2023/01/11 02:51:45;;;;;;;29.33;3.13;;;;;;;10.18;100.00;100547.91;5032399;28;20473;-40
2023/01/11 02:54:11;;;;;;;21.98;3.58;;;;;;;10.17;100.00;100551.66;5032780;28;20248;-40
2023/01/11 02:56:40;;;;;;;30.63;3.50;;;;;;;10.15;100.00;100561.75;5037626;28;20021;-40
2023/01/11 02:59:08;;;;;;;40.00;4.05;;;;;;;10.13;100.00;100558.41;5038489;28;20036;-40
2023/01/11 03:01:43;;;;;;;43.17;4.90;;;;;;;10.10;100.00;100542.66;5034010;28;20020;-40
2023/01/11 03:04:25;;;;;;;43.70;5.85;;;;;;;10.09;100.00;100549.06;5035313;28;20025;-40
2023/01/11 03:07:12;;;;;;;37.88;4.82;;;;;;;10.07;100.00;100557.28;5037954;28;20033;-40
2023/01/11 03:09:50;;;;;;;35.25;4.03;;;;;;;10.08;100.00;100585.00;5039967;28;20061;-39
2023/01/11 03:15:32;;;;;;;40.65;4.57;;;;;;;10.10;100.00;100569.53;5029332;28;20044;-40
2023/01/11 03:18:07;;;;;;;43.83;5.03;;;;;;;10.08;100.00;100561.66;5037125;28;20500;-40
2023/01/11 03:20:37;;;;;;;42.58;4.60;;;;;;;10.08;100.00;100561.66;5032492;28;20026;-40
2023/01/11 03:23:41;;;;;;;39.67;4.55;;;;;;;10.08;100.00;100568.88;5032545;28;20072;-39
2023/01/11 03:26:16;;;;;;;48.58;4.78;;;;;;;10.06;100.00;100573.63;5033149;28;20061;-40
2023/01/11 03:29:05;;;;;;;51.72;5.40;;;;;;;10.03;100.00;100568.59;5036481;28;20029;-40
2023/01/11 03:31:37;;;;;;;42.35;5.95;;;;;;;10.03;100.00;100568.59;5032775;28;20511;-41
2023/01/11 03:34:07;;;;;;;37.92;5.15;;;;;;;10.02;100.00;100577.69;5033737;28;20444;-40
2023/01/11 03:36:40;;;;;;;47.30;4.95;;;;;;;10.00;100.00;100585.09;5034096;28;20098;-39
2023/01/11 03:39:15;;;;;;;50.72;5.20;;;;;;;9.98;100.00;100595.19;5032240;28;20441;-40
2023/01/11 03:41:41;;;;;;;46.42;5.05;;;;;;;9.98;100.00;100597.88;5040933;28;20477;-39
2023/01/11 03:44:08;;;;;;;38.63;4.97;;;;;;;9.96;100.00;100600.78;5035062;28;20068;-39
2023/01/11 03:46:37;;;;;;;44.10;5.03;;;;;;;9.94;100.00;100601.97;5046758;28;20056;-40
2023/01/11 03:49:15;;;;;;;47.38;4.53;;;;;;;9.95;100.00;100609.00;5034486;28;20025;-40
2023/01/11 03:51:42;;;;;;;52.10;4.53;;;;;;;9.95;100.00;100603.63;5030819;28;20021;-39
2023/01/11 03:54:11;;;;;;;52.47;5.88;;;;;;;9.96;100.00;100610.69;5035715;28;20036;-40
2023/01/11 03:56:58;;;;;;;48.50;5.57;;;;;;;9.95;100.00;100592.88;5051367;28;20468;-39
2023/01/11 03:59:24;;;;;;;54.33;6.40;;;;;;;9.95;100.00;100619.78;5031365;28;20413;-40
2023/01/11 04:01:52;;;;;;;49.47;5.53;;;;;;;9.97;100.00;100628.50;5041720;28;20302;-40
2023/01/11 04:04:17;;;;;;;47.58;3.90;;;;;;;9.95;100.00;100641.28;5042869;28;20028;-41
2023/01/11 04:06:43;;;;;;;40.25;4.13;;;;;;;9.96;100.00;100648.34;5038090;28;20381;-40
2023/01/11 04:09:08;;;;;;;37.97;4.03;;;;;;;9.97;100.00;100644.63;5031751;28;20095;-40
2023/01/11 04:11:33;;;;;;;47.83;4.78;;;;;;;9.93;100.00;100632.59;5038201;28;20359;-40
2023/01/11 04:14:00;;;;;;;54.75;5.18;;;;;;;9.91;100.00;100635.44;5035734;28;20025;-40
2023/01/11 04:16:25;;;;;;;43.67;4.70;;;;;;;9.91;100.00;100640.00;5042635;28;20144;-40
2023/01/11 04:18:50;;;;;;;34.00;4.30;;;;;;;9.89;100.00;100632.91;5031127;28;20508;-40
2023/01/11 04:21:16;;;;;;;41.50;4.75;;;;;;;9.86;100.00;100622.53;5038726;28;20025;-41
2023/01/11 04:23:41;;;;;;;35.47;3.58;;;;;;;9.85;100.00;100628.13;5039371;28;20045;-40
2023/01/11 04:26:06;;;;;;;32.15;3.85;;;;;;;9.84;100.00;100635.31;5030970;28;20033;-41
2023/01/11 04:28:32;;;;;;;54.65;4.97;;;;;;;9.83;100.00;100633.66;5038711;28;20078;-40
2023/01/11 04:30:58;;;;;;;40.88;4.20;;;;;;;9.81;100.00;100642.91;5042580;28;20112;-41
2023/01/11 04:33:23;;;;;;;36.47;5.68;;;;;;;9.78;100.00;100641.44;5032666;28;20369;-40
2023/01/11 04:35:49;;;;;;;38.70;4.25;;;;;;;9.76;100.00;100643.47;5032840;28;20522;-40
2023/01/11 04:38:14;;;;;;;36.28;4.47;;;;;;;9.76;100.00;100640.78;5033063;28;20535;-38
2023/01/11 04:40:39;;;;;;;33.97;4.30;;;;;;;9.71;100.00;100648.53;5034387;28;20033;-40
2023/01/11 04:43:05;;;;;;;34.92;4.30;;;;;;;9.70;100.00;100638.81;5040963;28;20116;-40
2023/01/11 04:45:30;;;;;;;40.08;3.97;;;;;;;9.68;100.00;100647.06;5032959;28;20108;-40
2023/01/11 04:47:56;;;;;;;42.30;4.25;;;;;;;9.67;100.00;100640.00;5035811;28;20076;-40
2023/01/11 04:50:23;;;;;;;33.53;4.15;;;;;;;9.65;100.00;100641.22;5041008;28;20174;-40
2023/01/11 04:52:48;;;;;;;33.80;3.15;;;;;;;9.61;100.00;100634.50;5042955;28;20017;-40
2023/01/11 04:55:13;;;;;;;41.47;3.33;;;;;;;9.56;100.00;100631.56;5035087;28;20052;-40
2023/01/11 04:57:39;;;;;;;29.17;4.30;;;;;;;9.56;100.00;100636.94;5038788;28;20081;-40
2023/01/11 05:00:09;;;;;;;40.47;4.10;;;;;;;9.53;100.00;100634.59;5038882;28;20111;-41
2023/01/11 05:02:35;;;;;;;38.05;3.53;;;;;;;9.50;100.00;100638.47;5039871;28;20052;-40
2023/01/11 05:05:00;;;;;;;21.98;3.00;;;;;;;9.49;100.00;100636.81;5036984;28;20065;-39
2023/01/11 05:07:25;;;;;;;39.75;5.45;;;;;;;9.47;100.00;100638.81;5031678;28;20104;-41
2023/01/11 05:09:50;;;;;;;26.73;2.95;;;;;;;9.44;100.00;100628.44;5030470;28;20086;-40
2023/01/11 05:12:16;;;;;;;32.28;5.15;;;;;;;9.40;100.00;100630.66;5034763;28;20025;-40
2023/01/11 05:14:41;;;;;;;32.50;3.38;;;;;;;9.36;100.00;100650.84;5034200;28;20055;-40
2023/01/11 05:17:06;;;;;;;18.20;3.00;;;;;;;9.34;100.00;100658.22;5037707;28;20025;-40
2023/01/11 05:19:32;;;;;;;20.77;2.50;;;;;;;9.33;100.00;100659.25;5030303;28;20018;-40
2023/01/11 05:21:57;;;;;;;35.42;3.72;;;;;;;9.29;100.00;100668.66;5030369;28;20059;-40
2023/01/11 05:24:22;;;;;;;30.45;3.33;;;;;;;9.27;100.00;100664.47;5042566;28;20082;-40
2023/01/11 05:26:49;;;;;;;30.00;2.95;;;;;;;9.22;100.00;100665.03;5036970;28;20079;-40
2023/01/11 05:29:19;;;;;;;30.73;4.78;;;;;;;9.22;100.00;100667.72;5031636;28;20473;-40
2023/01/11 05:31:45;;;;;;;24.08;3.00;;;;;;;9.18;100.00;100671.75;5036351;28;20037;-39
2023/01/11 05:34:14;;;;;;;28.52;3.15;;;;;;;9.15;100.00;100672.94;5040981;28;20048;-40
2023/01/11 05:36:40;;;;;;;36.53;3.30;;;;;;;9.10;100.00;100663.75;5037330;28;20025;-40
2023/01/11 05:39:06;;;;;;;30.65;3.08;;;;;;;9.05;100.00;100668.81;5033855;28;20385;-40
2023/01/11 05:41:31;;;;;;;32.40;3.20;;;;;;;9.04;100.00;100669.84;5032694;28;20071;-40
2023/01/11 05:46:42;;;;;;;32.38;3.13;;;;;;;8.99;100.00;100679.25;5041057;28;20118;-40
2023/01/11 05:49:08;;;;;;;24.98;3.10;;;;;;;8.96;100.00;100678.78;5031480;28;20029;-40
2023/01/11 05:51:33;;;;;;;37.50;2.97;;;;;;;8.92;100.00;100672.91;5033346;28;20528;-40
2023/01/11 05:54:00;;;;;;;25.92;3.00;;;;;;;8.87;100.00;100677.94;5039733;28;20032;-40
2023/01/11 05:56:26;;;;;;;32.78;3.28;;;;;;;8.84;100.00;100688.22;5037451;28;20033;-40
2023/01/11 05:58:52;;;;;;;33.80;3.30;;;;;;;8.81;100.00;100675.97;5033216;28;20033;-40
2023/01/11 06:01:19;;;;;;;43.33;3.50;;;;;;;8.79;100.00;100672.63;5030081;28;20029;-40
2023/01/11 06:03:45;;;;;;;37.33;3.83;;;;;;;8.75;100.00;100687.41;5039515;28;20021;-40
2023/01/11 06:06:10;;;;;;;23.33;2.42;;;;;;;8.73;100.00;100689.44;5030697;28;20048;-40
2023/01/11 06:08:35;;;;;;;35.70;3.80;;;;;;;8.71;100.00;100700.31;5040406;28;20029;-40
2023/01/11 06:11:01;;;;;;;24.38;2.90;;;;;;;8.72;100.00;100712.75;5032029;28;20057;-40
2023/01/11 06:13:26;;;;;;;28.95;2.70;;;;;;;8.71;100.00;100707.53;5044557;28;20160;-40
2023/01/11 06:15:52;;;;;;;26.92;2.72;;;;;;;8.71;100.00;100718.28;5032029;28;20684;-40
2023/01/11 06:18:17;;;;;;;29.38;3.10;;;;;;;8.69;100.00;100717.59;5029828;28;20056;-39
2023/01/11 06:20:43;;;;;;;25.55;3.20;;;;;;;8.68;100.00;100729.34;5033083;28;20477;-40
2023/01/11 06:23:08;;;;;;;42.45;3.88;;;;;;;8.62;100.00;100730.06;5038811;28;20575;-40
2023/01/11 06:25:36;;;;;;;27.75;3.85;;;;;;;8.59;100.00;100736.59;5037733;28;20034;-40
2023/01/11 06:28:02;;;;;;;44.20;4.65;;;;;;;8.53;100.00;100739.94;5038812;28;20120;-40
2023/01/11 06:30:28;;;;;;;26.65;3.47;;;;;;;8.49;100.00;100742.16;5030352;28;20029;-40
2023/01/11 06:32:53;;;;;;;24.33;2.90;;;;;;;8.48;100.00;100753.06;5040511;28;20089;-40
2023/01/11 06:35:18;;;;;;;30.75;3.35;;;;;;;8.49;100.00;100752.03;5036198;28;20450;-40
2023/01/11 06:37:44;;;;;;;29.50;3.50;;;;;;;8.48;100.00;100761.94;5036499;28;20036;-40
2023/01/11 06:40:10;;;;;;;31.50;3.78;;;;;;;8.47;100.00;100748.69;5037485;28;20029;-40
2023/01/11 06:42:35;;;;;;;36.25;3.80;;;;;;;8.42;100.00;100754.56;5041261;28;20126;-40
2023/01/11 06:45:00;;;;;;;41.53;3.40;;;;;;;8.39;100.00;100762.09;5036226;28;20063;-39
2023/01/11 06:47:26;;;;;;;35.55;3.78;;;;;;;8.39;100.00;100762.94;5033806;28;20480;-40
2023/01/11 06:49:51;;;;;;;40.25;5.97;;;;;;;8.36;100.00;100769.44;5040144;28;20048;-39
2023/01/11 06:52:16;;;;;;;43.05;4.28;;;;;;;8.34;100.00;100768.78;5030627;28;20034;-40
2023/01/11 06:54:42;;;;;;;42.70;4.57;;;;;;;8.31;100.00;100765.59;5032248;28;20038;-39
2023/01/11 06:57:07;;;;;;;44.42;3.83;;;;;;;8.30;100.00;100774.66;5035844;28;20052;-40
2023/01/11 06:59:32;;;;;;;46.97;5.00;;;;;;;8.28;100.00;100771.31;5041843;28;20075;-39
2023/01/11 07:01:58;;;;;;;41.03;4.03;;;;;;;8.24;100.00;100768.13;5036754;28;20063;-40
2023/01/11 07:04:23;;;;;;;37.67;3.38;;;;;;;8.20;100.00;100764.09;5033650;28;20052;-42
2023/01/11 07:06:53;;;;;;;42.50;3.80;;;;;;;8.16;100.00;100773.47;5039589;28;20033;-39
2023/01/11 07:09:18;;;;;;;38.90;3.33;;;;;;;8.14;100.00;100778.19;5036502;28;20377;-42
2023/01/11 07:11:43;;;;;;;44.20;4.57;;;;;;;8.11;100.00;100779.38;5044936;28;20087;-40
2023/01/11 07:14:10;;;;;;;39.25;4.05;;;;;;;8.08;100.00;100793.09;5032560;28;20469;-40
2023/01/11 07:16:36;;;;;;;46.17;5.07;;;;;;;8.06;100.00;100800.47;5032479;28;20029;-40
2023/01/11 07:19:01;;;;;;;34.42;4.32;;;;;;;8.03;100.00;100800.81;5040882;28;20025;-40
2023/01/11 07:21:26;;;;;;;28.83;3.72;;;;;;;8.01;100.00;100801.97;5040798;28;20033;-40
2023/01/11 07:23:52;;;;;;;46.67;4.45;;;;;;;7.98;100.00;100808.50;5032623;28;20129;-40
2023/01/11 07:26:17;;;;;;;49.35;3.90;;;;;;;7.98;100.00;100810.31;5039091;28;20036;-40
2023/01/11 07:28:42;;;;;;;32.03;3.60;;;;;;;7.97;100.00;100811.34;5042255;28;20032;-40
2023/01/11 07:31:08;;;;;;;32.13;3.33;;;;;;;7.97;100.00;100814.03;5030835;28;20025;-41
2023/01/11 07:33:33;;;;;;;33.22;3.03;;;;;;;7.95;100.00;100818.69;5047492;28;20040;-40
2023/01/11 07:35:59;;;;;;;36.38;4.47;;;;;;;7.94;100.00;100823.22;5034716;28;20048;-40
2023/01/11 07:38:28;;;;;;;28.50;3.35;;;;;;;7.92;100.00;100833.25;5036923;28;20031;-40
2023/01/11 07:40:53;;;;;;;40.08;4.10;;;;;;;7.93;100.00;100837.66;5032397;28;20072;-40
2023/01/11 07:43:21;;;;;;;44.03;3.50;;;;;;;7.90;100.00;100833.44;5039601;28;20029;-40
2023/01/11 07:45:50;;;;;;;;;;;;;;;7.88;100.00;100846.16;5039620;28;20040;-40
2023/01/11 07:48:25;;;;;;;43.08;3.92;;;;;;;7.87;100.00;100849.88;5030795;28;19920;-40
2023/01/11 07:50:51;;;;;;;33.10;3.90;;;;;;;7.86;100.00;100852.69;5032122;28;20029;-39
2023/01/11 07:53:17;;;;;;;32.10;3.92;;;;;;;7.84;100.00;100854.69;5042657;28;20057;-39
2023/01/11 07:55:43;;;;;;;38.80;3.53;;;;;;;7.86;100.00;100866.09;5038960;28;20021;-39
2023/01/11 07:58:12;;;;;;;41.65;5.15;;;;;;;7.87;100.00;100865.06;5041742;28;20031;-40
2023/01/11 08:00:39;;;;;;;39.83;4.75;;;;;;;7.86;100.00;100863.41;5044119;28;20536;-40
2023/01/11 08:03:04;;;;;;;34.33;3.58;;;;;;;7.83;100.00;100856.53;5032410;28;20332;-40
2023/01/11 08:05:30;;;;;;;32.95;3.13;;;;;;;7.84;100.00;100854.69;5032052;28;20106;-40
2023/01/11 08:07:55;;;;;;;34.00;4.43;;;;;;;7.83;100.00;100859.22;5031621;28;20140;-40
2023/01/11 08:10:20;;;;;;;36.97;4.80;;;;;;;7.81;100.00;100857.69;5031956;28;20167;-40
2023/01/11 08:15:32;;;;;;;29.58;3.35;;;;;;;7.76;100.00;100862.72;5032296;28;20392;-40
2023/01/11 08:17:58;;;;;;;34.60;3.80;;;;;;;7.75;100.00;100866.41;5031783;28;20033;-40
2023/01/11 08:20:23;;;;;;;37.35;3.25;;;;;;;7.74;100.00;100865.56;5031921;28;20183;-40
2023/01/11 08:22:49;;;;;;;28.50;3.05;;;;;;;7.74;100.00;100876.28;5039099;28;20029;-40
2023/01/11 08:25:14;;;;;;;35.90;4.70;;;;;;;7.76;100.00;100884.16;5031647;28;20474;-40
2023/01/11 08:27:40;;;;;;;29.65;3.00;;;;;;;7.77;100.00;100891.19;5031678;28;20131;-41
2023/01/11 08:30:06;;;;;;;35.80;3.67;;;;;;;7.77;100.00;100889.34;5031650;28;20037;-40
2023/01/11 08:32:31;;;;;;;32.30;3.00;;;;;;;7.81;100.00;100892.53;5040254;28;20512;-40
2023/01/11 08:34:56;;;;;;;33.15;3.33;;;;;;;7.84;100.00;100903.75;5031573;28;20464;-41
2023/01/11 08:37:22;;;;;;;43.50;4.28;;;;;;;7.93;100.00;100901.13;5031602;28;20487;-40
2023/01/11 08:39:47;;;;;;;38.70;4.88;;;;;;;8.07;100.00;100898.63;5031619;28;20131;-41
2023/01/11 08:42:12;;;;;;;33.92;4.05;;;;;;;8.32;100.00;100896.84;5033614;28;20067;-41
2023/01/11 08:44:38;;;;;;;30.27;3.70;;;;;;;8.57;100.00;100899.56;5051085;28;20032;-40
2023/01/11 08:47:03;;;;;;;33.95;3.80;;;;;;;8.83;100.00;100901.25;5049391;28;20377;-40
2023/01/11 08:49:29;;;;;;;44.22;4.47;;;;;;;9.05;100.00;100897.00;5039454;28;20029;-41
2023/01/11 08:51:54;;;;;;;32.05;4.28;;;;;;;9.37;100.00;100888.88;5037460;28;20032;-40
2023/01/11 08:54:20;;;;;;;45.20;4.53;;;;;;;9.71;100.00;100886.88;5031564;28;20034;-41
2023/01/11 08:56:46;;;;;;;35.65;3.88;;;;;;;9.91;100.00;100885.44;5030985;28;20112;-40
2023/01/11 08:59:11;;;;;;;22.30;4.28;;;;;;;10.38;100.00;100872.91;5031205;28;20025;-41
2023/01/11 09:01:37;;;;;;;36.75;4.20;;;;;;;10.56;100.00;100870.75;5030986;28;20090;-40
2023/01/11 09:04:02;;;;;;;27.77;3.42;;;;;;;10.66;100.00;100876.69;5038674;28;20033;-40
2023/01/11 09:06:28;;;;;;;35.97;4.63;;;;;;;10.95;100.00;100869.69;5046878;28;20079;-41
2023/01/11 09:08:53;;;;;;;25.80;3.45;;;;;;;11.00;100.00;100867.28;5046305;28;20040;-40
2023/01/11 09:14:04;;;;;;;32.65;3.85;;;;;;;10.54;100.00;100872.78;5030988;28;20068;-40
2023/01/11 09:16:29;;;;;;;24.30;3.53;;;;;;;10.72;100.00;100869.78;5030349;28;20052;-41
2023/01/11 09:18:55;;;;;;;31.30;3.55;;;;;;;10.77;100.00;100872.75;5030780;28;20121;-41
2023/01/11 09:21:20;;;;;;;29.92;3.63;;;;;;;10.99;100.00;100879.09;5030553;28;20045;-41
2023/01/11 09:23:46;;;;;;;23.58;3.40;;;;;;;11.01;100.00;100879.75;5043700;28;20128;-39
2023/01/11 09:26:11;;;;;;;24.92;4.05;;;;;;;10.90;100.00;100882.88;5041128;28;20410;-41
2023/01/11 09:28:37;;;;;;;29.70;3.35;;;;;;;10.91;100.00;100871.09;5030736;28;20033;-41
2023/01/11 09:31:02;;;;;;;28.85;3.33;;;;;;;10.75;100.00;100880.16;5030517;28;20057;-41
2023/01/11 09:33:28;;;;;;;30.30;3.17;;;;;;;10.58;100.00;100887.53;5037911;28;20084;-41
2023/01/11 09:35:55;;;;;;;30.27;4.15;;;;;;;10.75;100.00;100882.88;5045024;28;20025;-41
2023/01/11 09:38:24;;;;;;;24.75;3.03;;;;;;;11.08;100.00;100880.66;5032002;28;20448;-41
2023/01/11 09:41:22;;;;;;;38.92;4.22;;;;;;;10.92;100.00;100876.28;5030920;28;20117;-41
2023/01/11 09:44:05;;;;;;;40.08;4.00;;;;;;;11.03;100.00;100880.38;5043334;28;20033;-40
2023/01/11 09:46:31;;;;;;;24.17;3.05;;;;;;;11.09;100.00;100893.13;5038300;28;20037;-39
2023/01/11 09:48:58;;;;;;;39.80;4.20;;;;;;;11.42;100.00;100887.38;5029237;28;20088;-40
2023/01/11 09:51:32;;;;;;;28.02;3.20;;;;;;;11.63;100.00;100884.75;5030091;28;20036;-39
2023/01/11 09:54:00;;;;;;;30.00;4.00;;;;;;;11.41;100.00;100891.09;5036026;28;20042;-40
2023/01/11 09:56:31;;;;;;;36.33;3.95;;;;;;;11.37;100.00;100892.47;5029932;28;20121;-39
2023/01/11 09:58:57;;;;;;;21.63;3.55;;;;;;;11.25;100.00;100904.75;5030183;28;20112;-39
2023/01/11 10:01:36;;;;;;;37.10;4.40;;;;;;;10.97;100.00;100905.38;5030317;28;20132;-36
2023/01/11 10:04:28;;;;;;;33.05;4.07;;;;;;;11.00;100.00;100910.38;5037664;28;20036;-39
2023/01/11 10:07:13;;;;;;;36.50;4.35;;;;;;;10.92;100.00;100907.75;5029157;28;20045;-40
2023/01/11 10:10:00;;;;;;;29.73;3.28;;;;;;;10.88;100.00;100925.31;5029670;28;20040;-40
2023/01/11 10:12:59;;;;;;;30.40;3.92;;;;;;;11.13;100.00;100931.31;5031556;28;20033;-40
2023/01/11 10:15:48;;;;;;;26.90;3.90;;;;;;;11.09;100.00;100930.84;5048326;28;20033;-40
2023/01/11 10:18:57;;;;;;;26.55;3.10;;;;;;;11.01;100.00;100932.78;5045671;28;20400;-40
2023/01/11 10:21:28;;;;;;;24.40;2.85;;;;;;;10.78;100.00;100941.72;5010918;28;20080;-39
2023/01/11 10:24:22;;;;;;;34.28;4.00;;;;;;;10.61;100.00;100950.94;5007442;28;20541;-40
2023/01/11 10:26:49;;;;;;;34.15;3.28;;;;;;;10.59;100.00;100937.66;5021103;28;20045;-38
2023/01/11 10:32:52;;;;;;;30.73;3.22;;;;;;;10.57;100.00;100952.31;5047048;28;20124;-40
2023/01/11 10:35:56;;;;;;;33.97;4.10;;;;;;;10.61;100.00;100951.78;5047747;28;20056;-37
2023/01/11 10:41:51;;;;;;;37.47;3.90;;;;;;;10.98;100.00;100939.38;5041300;28;20108;-39
2023/01/11 10:44:31;;;;;;;24.65;3.55;;;;;;;11.05;100.00;100940.28;5037848;28;20162;-40
2023/01/11 10:46:58;;;;;;;29.67;3.10;;;;;;;10.65;100.00;100930.72;5044441;28;20032;-40
2023/01/11 10:49:24;;;;;;;32.38;4.07;;;;;;;10.66;100.00;100941.28;5052437;28;20043;-40
2023/01/11 10:51:52;;;;;;;37.47;3.35;;;;;;;10.45;100.00;100930.34;5044416;28;20329;-39
2023/01/11 10:54:37;;;;;;;39.13;3.90;;;;;;;10.39;100.00;100931.06;5049963;28;20136;-39
2023/01/11 10:57:21;;;;;;;43.28;4.18;;;;;;;10.20;100.00;100946.63;5033249;28;20037;-40
2023/01/11 11:00:25;;;;;;;29.55;3.53;;;;;;;10.11;100.00;100942.31;5031450;28;20528;-40
2023/01/11 11:03:07;;;;;;;29.92;3.80;;;;;;;10.29;100.00;100929.47;5051791;28;20034;-40
2023/01/11 11:05:53;;;;;;;42.33;5.43;;;;;;;10.71;100.00;100933.50;5034697;28;20028;-40
2023/01/11 11:08:26;;;;;;;30.83;4.10;;;;;;;10.73;100.00;100920.72;5031618;28;20129;-41
2023/01/11 11:10:59;;;;;;;41.50;3.95;;;;;;;10.53;100.00;100924.91;5033433;28;20037;-40
2023/01/11 11:13:33;;;;;;;31.83;3.38;;;;;;;10.52;100.00;100918.69;5036379;28;20025;-38
2023/01/11 11:16:06;;;;;;;34.20;3.70;;;;;;;10.50;100.00;100931.47;5052646;28;20031;-40
2023/01/11 11:18:32;;;;;;;35.03;3.53;;;;;;;10.37;100.00;100923.16;5035017;28;20029;-40
2023/01/11 11:21:02;;;;;;;41.85;4.05;;;;;;;10.31;100.00;100938.19;5035052;28;20028;-40
2023/01/11 11:23:28;;;;;;;37.03;4.22;;;;;;;10.46;100.00;100932.88;5050771;28;20029;-40
2023/01/11 11:25:56;;;;;;;30.42;3.50;;;;;;;10.44;100.00;100931.38;5040153;28;20025;-39
2023/01/11 11:28:21;;;;;;;32.25;3.60;;;;;;;10.65;100.00;100930.72;5039460;28;20025;-40
2023/01/11 11:30:46;;;;;;;29.65;3.17;;;;;;;10.91;100.00;100939.25;5040470;28;20546;-39
2023/01/11 11:33:19;;;;;;;24.65;3.78;;;;;;;11.11;100.00;100927.94;5034489;28;20037;-40
2023/01/11 11:36:03;;;;;;;35.50;4.63;;;;;;;11.19;100.00;100935.97;5031100;28;20051;-40
2023/01/11 11:38:36;;;;;;;28.45;3.35;;;;;;;11.27;100.00;100951.19;5031857;28;20029;-40
2023/01/11 11:41:14;;;;;;;30.75;3.08;;;;;;;10.62;100.00;100939.16;5034731;28;20031;-41
2023/01/11 11:43:41;;;;;;;33.28;3.47;;;;;;;10.29;100.00;100939.38;5040581;28;20038;-42
2023/01/11 11:46:13;;;;;;;35.28;3.60;;;;;;;10.14;100.00;100944.66;5033816;28;20091;-37
2023/01/11 11:48:38;;;;;;;22.40;3.47;;;;;;;10.14;100.00;100947.34;5030772;28;20026;-39
2023/01/11 11:51:06;;;;;;;27.73;2.95;;;;;;;10.13;100.00;100940.28;5030598;28;20048;-40
2023/01/11 11:53:53;;;;;;;36.75;4.13;;;;;;;10.17;100.00;100940.78;5041014;28;20039;-41